createdAt,value
2022-10-11T00:01:25.733Z,98033.03
2022-10-11T00:03:52.357Z,98034.09
2022-10-11T00:06:18.942Z,98040.88
2022-10-11T00:08:45.531Z,98041.03
2022-10-11T00:11:12.111Z,98044.34
2022-10-11T00:13:38.928Z,98039.41
2022-10-11T00:16:10.902Z,98045.22
2022-10-11T00:18:38.122Z,98042.47
2022-10-11T00:21:07.267Z,98046.34
2022-10-11T00:23:34.297Z,98038.88
2022-10-11T00:26:03.874Z,98039.59
2022-10-11T00:28:33.519Z,98045.09
2022-10-11T00:31:00.464Z,98050.56
2022-10-11T00:33:27.102Z,98048.22
2022-10-11T00:35:53.731Z,98045.31
2022-10-11T00:38:20.523Z,98052.66
2022-10-11T00:40:47.295Z,98058.88
2022-10-11T00:43:18.189Z,98066.31
2022-10-11T00:46:10.581Z,98061.28
2022-10-11T00:48:41.568Z,98064.44
2022-10-11T00:51:23.237Z,98070.25
2022-10-11T00:53:52.622Z,98070.81
2022-10-11T00:56:32.688Z,98072.44
2022-10-11T00:59:02.518Z,98070.25
2022-10-11T01:01:29.374Z,98071.84
2022-10-11T01:03:56.765Z,98077.34
2022-10-11T01:06:23.995Z,98077.94
2022-10-11T01:08:52.123Z,98075.19
2022-10-11T01:11:23.190Z,98077.19
2022-10-11T01:14:27.961Z,98076.78
2022-10-11T01:17:08.993Z,98076.63
2022-10-11T01:19:56.667Z,98072.66
2022-10-11T01:22:53.407Z,98074.88
2022-10-11T01:25:57.010Z,98068.72
2022-10-11T01:28:48.875Z,98077.59
2022-10-11T01:31:27.730Z,98074.69
2022-10-11T01:34:05.062Z,98081.66
2022-10-11T01:36:50.046Z,98072.69
2022-10-11T01:39:36.929Z,98076.47
2022-10-11T01:42:07.632Z,98074.06
2022-10-11T01:44:36.049Z,98078.66
2022-10-11T01:47:02.622Z,98069.88
2022-10-11T01:49:29.290Z,98077.69
2022-10-11T01:51:59.963Z,98077.84
2022-10-11T01:55:12.061Z,98083.91
2022-10-11T01:58:00.412Z,98086.78
2022-10-11T02:00:35.462Z,98083.50
2022-10-11T02:03:39.235Z,98090.25
2022-10-11T02:06:27.850Z,98082.03
2022-10-11T02:09:08.362Z,98089.53
2022-10-11T02:11:36.450Z,98085.53
2022-10-11T02:14:17.163Z,98078.72
2022-10-11T02:16:49.423Z,98084.53
2022-10-11T02:19:19.804Z,98092.94
2022-10-11T02:21:53.148Z,98080.50
2022-10-11T02:24:44.520Z,98092.53
2022-10-11T02:27:12.541Z,98088.59
2022-10-11T02:29:41.927Z,98084.22
2022-10-11T02:32:10.222Z,98093.19
2022-10-11T02:34:44.808Z,98092.13
2022-10-11T02:37:41.165Z,98098.75
2022-10-11T02:40:12.978Z,98092.22
2022-10-11T02:42:51.444Z,98092.78
2022-10-11T02:45:31.514Z,98092.44
2022-10-11T02:47:58.859Z,98096.88
2022-10-11T02:50:26.618Z,98088.16
2022-10-11T02:52:53.253Z,98091.47
2022-10-11T02:55:20.122Z,98094.84
2022-10-11T02:57:46.710Z,98105.16
2022-10-11T03:00:14.321Z,98105.63
2022-10-11T03:02:41.108Z,98103.66
2022-10-11T03:05:08.276Z,98107.19
2022-10-11T03:07:34.881Z,98109.59
2022-10-11T03:10:01.461Z,98112.00
2022-10-11T03:12:28.007Z,98114.06
2022-10-11T03:14:54.685Z,98122.13
2022-10-11T03:17:36.200Z,98118.47
2022-10-11T03:20:05.220Z,98123.41
2022-10-11T03:22:32.043Z,98118.31
2022-10-11T03:25:02.731Z,98117.41
2022-10-11T03:27:30.958Z,98120.16
2022-10-11T03:29:57.845Z,98119.09
2022-10-11T03:32:24.570Z,98118.16
2022-10-11T03:34:51.188Z,98115.09
2022-10-11T03:37:18.241Z,98116.75
2022-10-11T03:39:45.753Z,98114.75
2022-10-11T03:42:13.711Z,98114.91
2022-10-11T03:44:42.135Z,98116.38
2022-10-11T03:47:08.973Z,98129.31
2022-10-11T03:49:38.815Z,98133.53
2022-10-11T03:52:07.914Z,98130.28
2022-10-11T03:54:34.530Z,98133.44
2022-10-11T03:57:01.080Z,98141.13
2022-10-11T03:59:27.685Z,98137.09
2022-10-11T04:01:54.505Z,98140.03
2022-10-11T04:04:21.134Z,98128.88
2022-10-11T04:06:47.685Z,98129.22
2022-10-11T04:09:14.291Z,98130.84
2022-10-11T04:11:41.100Z,98128.59
2022-10-11T04:14:07.854Z,98135.72
2022-10-11T04:16:35.232Z,98135.13
2022-10-11T04:19:01.985Z,98137.00
2022-10-11T04:21:28.522Z,98137.38
2022-10-11T04:23:55.345Z,98128.44
2022-10-11T04:26:22.143Z,98133.94
2022-10-11T04:28:48.711Z,98133.59
2022-10-11T04:31:15.339Z,98135.19
2022-10-11T04:33:41.929Z,98134.81
2022-10-11T04:36:09.027Z,98139.78
2022-10-11T04:38:35.971Z,98141.09
2022-10-11T04:41:08.104Z,98142.03
2022-10-11T04:43:34.747Z,98142.97
2022-10-11T04:46:01.790Z,98136.44
2022-10-11T04:48:28.752Z,98142.69
2022-10-11T04:50:55.546Z,98148.53
2022-10-11T04:53:24.872Z,98147.63
2022-10-11T04:56:04.350Z,98140.16
2022-10-11T04:58:32.411Z,98143.28
2022-10-11T05:00:59.168Z,98144.72
2022-10-11T05:03:26.798Z,98148.19
2022-10-11T05:05:53.461Z,98146.91
2022-10-11T05:08:20.426Z,98149.25
2022-10-11T05:11:04.370Z,98149.81
2022-10-11T05:13:31.929Z,98150.91
2022-10-11T05:15:58.875Z,98147.06
2022-10-11T05:18:25.832Z,98145.97
2022-10-11T05:21:25.609Z,98147.41
2022-10-11T05:23:53.829Z,98150.53
2022-10-11T05:26:20.748Z,98146.34
2022-10-11T05:28:48.114Z,98149.06
2022-10-11T05:31:15.860Z,98153.63
2022-10-11T05:33:43.048Z,98152.34
2022-10-11T05:36:10.132Z,98161.84
2022-10-11T05:38:38.094Z,98158.38
2022-10-11T05:41:06.231Z,98164.56
2022-10-11T05:43:33.225Z,98171.84
2022-10-11T05:46:00.270Z,98178.03
2022-10-11T05:48:28.482Z,98183.47
2022-10-11T05:51:05.330Z,98185.06
2022-10-11T05:53:32.231Z,98196.00
2022-10-11T05:55:59.751Z,98200.72
2022-10-11T05:58:26.842Z,98201.59
2022-10-11T06:00:53.611Z,98204.28
2022-10-11T06:03:21.105Z,98207.94
2022-10-11T06:05:48.007Z,98215.78
2022-10-11T06:08:15.815Z,98220.69
2022-10-11T06:10:42.622Z,98220.88
2022-10-11T06:13:09.599Z,98223.78
2022-10-11T06:15:39.154Z,98222.63
2022-10-11T06:18:05.786Z,98226.94
2022-10-11T06:20:32.805Z,98226.72
2022-10-11T06:22:59.565Z,98220.28
2022-10-11T06:25:26.148Z,98224.28
2022-10-11T06:27:52.704Z,98228.72
2022-10-11T06:30:19.286Z,98228.13
2022-10-11T06:32:46.060Z,98237.91
2022-10-11T06:35:13.325Z,98225.25
2022-10-11T06:37:39.916Z,98229.00
2022-10-11T06:40:07.386Z,98233.13
2022-10-11T06:42:33.969Z,98230.69
2022-10-11T06:45:00.779Z,98224.34
2022-10-11T06:47:27.513Z,98226.78
2022-10-11T06:49:54.111Z,98224.91
2022-10-11T06:52:20.666Z,98221.03
2022-10-11T06:54:47.269Z,98220.38
2022-10-11T06:57:15.836Z,98218.34
2022-10-11T06:59:42.485Z,98220.41
2022-10-11T07:02:10.080Z,98227.75
2022-10-11T07:04:36.677Z,98225.31
2022-10-11T07:07:03.233Z,98227.06
2022-10-11T07:09:30.831Z,98230.84
2022-10-11T07:11:57.620Z,98234.97
2022-10-11T07:14:24.288Z,98233.41
2022-10-11T07:16:51.008Z,98231.69
2022-10-11T07:19:17.573Z,98235.88
2022-10-11T07:21:44.374Z,98234.25
2022-10-11T07:24:11.081Z,98244.72
2022-10-11T07:26:38.947Z,98240.69
2022-10-11T07:29:08.175Z,98242.59
2022-10-11T07:31:38.624Z,98239.84
2022-10-11T07:34:05.430Z,98238.97
2022-10-11T07:36:32.254Z,98242.31
2022-10-11T07:38:58.858Z,98242.00
2022-10-11T07:41:26.937Z,98257.06
2022-10-11T07:43:55.037Z,98255.19
2022-10-11T07:46:21.880Z,98255.78
2022-10-11T07:48:50.963Z,98264.47
2022-10-11T07:51:22.287Z,98270.91
2022-10-11T07:54:01.353Z,98267.00
2022-10-11T07:56:31.530Z,98267.72
2022-10-11T07:59:00.662Z,98268.59
2022-10-11T08:01:28.803Z,98273.13
2022-10-11T08:03:59.046Z,98269.06
2022-10-11T08:06:31.692Z,98268.66
2022-10-11T08:09:00.602Z,98279.56
2022-10-11T08:11:33.819Z,98275.03
2022-10-11T08:14:01.754Z,98286.34
2022-10-11T08:16:28.434Z,98283.28
2022-10-11T08:18:57.042Z,98285.00
2022-10-11T08:21:24.301Z,98281.25
2022-10-11T08:23:51.368Z,98282.41
2022-10-11T08:26:18.194Z,98279.84
2022-10-11T08:28:44.891Z,98284.63
2022-10-11T08:31:14.009Z,98282.88
2022-10-11T08:33:42.116Z,98284.66
2022-10-11T08:36:10.253Z,98294.09
2022-10-11T08:38:38.020Z,98292.63
2022-10-11T08:41:23.150Z,98293.94
2022-10-11T08:45:10.058Z,98292.06
2022-10-11T08:47:44.729Z,98297.44
2022-10-11T08:50:20.885Z,98303.25
2022-10-11T08:53:02.697Z,98301.66
2022-10-11T08:55:39.934Z,98303.69
2022-10-11T08:58:06.950Z,98309.63
2022-10-11T09:00:38.156Z,98305.84
2022-10-11T09:03:28.232Z,98312.78
2022-10-11T09:06:32.113Z,98309.03
2022-10-11T09:09:34.224Z,98316.28
2022-10-11T09:12:23.164Z,98308.75
2022-10-11T09:15:14.926Z,98314.97
2022-10-11T09:18:19.203Z,98313.38
2022-10-11T09:21:38.473Z,98314.38
2022-10-11T09:24:58.227Z,98319.91
2022-10-11T10:00:25.068Z,98326.91
2022-10-11T10:02:54.793Z,98327.19
2022-10-11T10:05:26.613Z,98322.69
2022-10-11T10:08:31.899Z,98323.69
2022-10-11T10:11:02.528Z,98324.56
2022-10-11T10:13:52.220Z,98329.31
2022-10-11T10:16:28.308Z,98324.72
2022-10-11T10:18:58.152Z,98331.25
2022-10-11T10:21:31.661Z,98326.03
2022-10-11T10:24:03.191Z,98331.41
2022-10-11T10:26:30.953Z,98333.56
2022-10-11T10:29:24.892Z,98332.25
2022-10-11T10:35:01.028Z,98340.94
2022-10-11T10:37:39.903Z,98332.47
2022-10-11T10:40:14.417Z,98332.19
2022-10-11T10:42:41.333Z,98332.59
2022-10-11T10:45:20.087Z,98337.41
2022-10-11T10:48:18.446Z,98335.50
2022-10-11T10:50:47.886Z,98339.25
2022-10-11T10:53:37.650Z,98331.16
2022-10-11T10:56:38.142Z,98326.63
2022-10-11T10:59:44.777Z,98331.00
2022-10-11T11:02:40.341Z,98325.25
2022-10-11T11:05:55.886Z,98322.78
2022-10-11T11:09:13.643Z,98326.88
2022-10-11T11:12:13.943Z,98326.31
2022-10-11T11:15:12.355Z,98324.00
2022-10-11T11:17:57.065Z,98330.09
2022-10-11T11:20:37.189Z,98324.72
2022-10-11T11:23:14.101Z,98317.00
2022-10-11T11:26:08.580Z,98318.34
2022-10-11T11:29:02.635Z,98316.44
2022-10-11T11:31:53.036Z,98309.75
2022-10-11T11:34:37.909Z,98313.66
2022-10-11T11:37:13.483Z,98308.97
2022-10-11T11:39:46.232Z,98301.22
2022-10-11T11:42:18.263Z,98310.50
2022-10-11T11:44:50.669Z,98304.59
2022-10-11T11:47:43.524Z,98297.25
2022-10-11T11:50:29.606Z,98300.16
2022-10-11T11:53:05.387Z,98296.75
2022-10-11T11:56:11.457Z,98291.41
2022-10-11T11:58:53.242Z,98304.47
2022-10-11T12:01:51.785Z,98284.03
2022-10-11T12:04:42.196Z,98290.25
2022-10-11T12:07:17.094Z,98292.78
2022-10-11T12:09:51.481Z,98289.31
2022-10-11T12:12:37.128Z,98282.44
2022-10-11T12:15:03.598Z,98279.31
2022-10-11T12:17:30.533Z,98286.88
2022-10-11T12:20:12.125Z,98284.00
2022-10-11T12:22:51.733Z,98288.38
2022-10-11T12:25:27.249Z,98285.63
2022-10-11T12:27:57.606Z,98287.47
2022-10-11T12:30:56.245Z,98277.47
2022-10-11T12:33:46.081Z,98279.81
2022-10-11T12:36:44.093Z,98269.69
2022-10-11T12:39:43.476Z,98270.31
2022-10-11T12:42:36.064Z,98270.66
2022-10-11T12:45:33.415Z,98272.09
2022-10-11T12:48:46.232Z,98273.09
2022-10-11T12:51:49.585Z,98262.44
2022-10-11T12:54:41.857Z,98261.94
2022-10-11T12:57:49.466Z,98265.75
2022-10-11T13:00:31.800Z,98265.03
2022-10-11T13:03:05.084Z,98257.69
2022-10-11T13:05:48.672Z,98256.75
2022-10-11T13:08:26.949Z,98260.56
2022-10-11T13:10:59.103Z,98261.00
2022-10-11T13:13:37.560Z,98263.38
2022-10-11T13:16:17.802Z,98260.47
2022-10-11T13:18:47.457Z,98258.78
2022-10-11T13:21:49.683Z,98259.53
2022-10-11T13:24:19.214Z,98256.97
2022-10-11T13:26:50.613Z,98253.22
2022-10-11T13:29:23.808Z,98257.16
2022-10-11T13:31:50.461Z,98262.09
2022-10-11T13:34:22.390Z,98251.50
2022-10-11T13:36:56.470Z,98251.69
2022-10-11T13:39:31.123Z,98256.34
2022-10-11T13:42:00.184Z,98258.84
2022-10-11T13:44:34.105Z,98259.56
2022-10-11T13:47:01.016Z,98261.44
2022-10-11T13:49:40.118Z,98260.88
2022-10-11T13:52:30.154Z,98261.16
2022-10-11T13:55:32.153Z,98256.16
2022-10-11T13:58:01.053Z,98260.50
2022-10-11T14:00:35.195Z,98251.34
2022-10-11T14:03:22.618Z,98258.28
2022-10-11T14:05:59.181Z,98255.84
2022-10-11T14:08:39.157Z,98252.78
2022-10-11T14:11:07.103Z,98256.31
2022-10-11T14:13:49.701Z,98251.81
2022-10-11T14:16:36.427Z,98246.19
2022-10-11T14:19:10.026Z,98262.00
2022-10-11T14:22:07.378Z,98251.53
2022-10-11T14:24:33.925Z,98256.94
2022-10-11T14:27:05.452Z,98256.66
2022-10-11T14:29:35.442Z,98250.56
2022-10-11T14:32:08.944Z,98254.38
2022-10-11T14:34:35.794Z,98257.88
2022-10-11T14:37:02.801Z,98249.19
2022-10-11T14:39:32.540Z,98260.69
2022-10-11T14:41:59.649Z,98257.50
2022-10-11T14:44:26.584Z,98256.78
2022-10-11T14:46:55.004Z,98255.19
2022-10-11T14:49:27.630Z,98247.47
2022-10-11T14:51:56.042Z,98255.75
2022-10-11T14:54:24.988Z,98249.38
2022-10-11T14:56:53.034Z,98252.69
2022-10-11T14:59:23.548Z,98253.56
2022-10-11T15:01:54.837Z,98251.53
2022-10-11T15:04:22.539Z,98245.31
2022-10-11T15:06:49.420Z,98247.34
2022-10-11T15:09:17.138Z,98240.22
2022-10-11T15:11:44.106Z,98240.09
2022-10-11T15:14:10.647Z,98236.59
2022-10-11T15:16:37.263Z,98243.44
2022-10-11T15:19:04.266Z,98238.63
2022-10-11T15:21:31.138Z,98244.75
2022-10-11T15:23:57.999Z,98239.81
2022-10-11T15:26:27.106Z,98245.75
2022-10-11T15:28:55.233Z,98251.28
2022-10-11T15:31:23.048Z,98246.94
2022-10-11T15:33:52.893Z,98244.03
2022-10-11T15:36:23.286Z,98242.59
2022-10-11T15:38:50.131Z,98240.41
2022-10-11T15:41:19.959Z,98233.88
2022-10-11T15:43:48.389Z,98247.38
2022-10-11T15:46:20.732Z,98240.28
2022-10-11T15:48:47.187Z,98244.91
2022-10-11T15:51:13.871Z,98235.59
2022-10-11T15:53:40.849Z,98241.13
2022-10-11T15:56:10.113Z,98243.75
2022-10-11T15:58:39.974Z,98243.88
2022-10-11T16:01:15.184Z,98249.25
2022-10-11T16:03:41.894Z,98236.63
2022-10-11T16:06:08.892Z,98243.44
2022-10-11T16:08:36.546Z,98247.38
2022-10-11T16:11:04.337Z,98246.50
2022-10-11T16:13:31.290Z,98241.41
2022-10-11T16:15:58.061Z,98248.38
2022-10-11T16:18:24.641Z,98252.16
2022-10-11T16:20:52.026Z,98245.75
2022-10-11T16:23:20.710Z,98256.31
2022-10-11T16:25:57.645Z,98255.31
2022-10-11T16:28:24.521Z,98247.47
2022-10-11T16:30:51.126Z,98252.84
2022-10-11T16:33:17.697Z,98251.81
2022-10-11T16:35:44.371Z,98252.41
2022-10-11T16:38:11.131Z,98246.75
2022-10-11T16:40:39.222Z,98251.22
2022-10-11T16:43:07.899Z,98249.63
2022-10-11T16:45:35.460Z,98263.94
2022-10-11T16:48:02.428Z,98263.81
2022-10-11T16:50:29.211Z,98266.53
2022-10-11T16:52:56.079Z,98260.16
2022-10-11T16:55:22.903Z,98258.84
2022-10-11T16:57:49.627Z,98264.94
2022-10-11T17:00:16.964Z,98265.34
2022-10-11T17:02:43.502Z,98262.75
2022-10-11T17:05:10.117Z,98279.13
2022-10-11T17:07:36.722Z,98275.47
2022-10-11T17:10:04.438Z,98269.13
2022-10-11T17:12:32.317Z,98277.50
2022-10-11T17:14:58.892Z,98277.19
2022-10-11T17:17:26.406Z,98274.31
2022-10-11T17:19:53.001Z,98276.91
2022-10-11T17:22:20.184Z,98277.91
2022-10-11T17:24:47.407Z,98283.25
2022-10-11T17:27:14.105Z,98285.38
2022-10-11T17:29:40.725Z,98281.56
2022-10-11T17:32:07.543Z,98274.47
2022-10-11T17:34:37.143Z,98284.41
2022-10-11T17:37:03.885Z,98282.06
2022-10-11T17:39:30.853Z,98281.03
2022-10-11T17:41:57.843Z,98272.31
2022-10-11T17:44:24.410Z,98281.88
2022-10-11T17:46:51.028Z,98282.16
2022-10-11T17:49:18.286Z,98288.63
2022-10-11T17:51:44.888Z,98278.91
2022-10-11T17:54:12.835Z,98280.78
2022-10-11T17:56:41.949Z,98277.47
2022-10-11T17:59:18.470Z,98282.50
2022-10-11T18:01:45.267Z,98274.66
2022-10-11T18:04:16.562Z,98274.03
2022-10-11T18:06:45.459Z,98273.13
2022-10-11T18:09:13.461Z,98283.41
2022-10-11T18:11:40.270Z,98285.97
2022-10-11T18:14:07.597Z,98289.72
2022-10-11T18:16:35.418Z,98283.72
2022-10-11T18:19:04.089Z,98292.56
2022-10-11T18:21:34.234Z,98286.47
2022-10-11T18:24:03.216Z,98290.84
2022-10-11T18:26:30.877Z,98290.13
2022-10-11T18:28:58.520Z,98286.06
2022-10-11T18:31:28.314Z,98285.94
2022-10-11T18:33:55.211Z,98287.19
2022-10-11T18:36:24.862Z,98283.00
2022-10-11T18:38:56.549Z,98291.66
2022-10-11T18:41:25.112Z,98283.28
2022-10-11T18:43:54.550Z,98280.34
2022-10-11T18:46:22.480Z,98281.06
2022-10-11T18:48:51.140Z,98291.81
2022-10-11T18:51:20.740Z,98286.16
2022-10-11T18:53:48.324Z,98289.81
2022-10-11T18:56:17.121Z,98286.16
2022-10-11T18:58:44.703Z,98281.25
2022-10-11T19:01:15.976Z,98285.28
2022-10-11T19:03:44.205Z,98286.16
2022-10-11T19:06:18.949Z,98283.97
2022-10-11T19:08:50.873Z,98289.47
2022-10-11T19:11:25.450Z,98283.09
2022-10-11T19:14:00.826Z,98284.22
2022-10-11T19:16:29.800Z,98285.34
2022-10-11T19:18:56.969Z,98283.16
2022-10-11T19:21:23.669Z,98285.75
2022-10-11T19:23:50.896Z,98281.41
2022-10-11T19:26:27.438Z,98288.91
2022-10-11T19:29:05.136Z,98288.91
2022-10-11T19:31:33.178Z,98290.03
2022-10-11T19:34:00.195Z,98284.38
2022-10-11T19:36:33.975Z,98286.41
2022-10-11T19:39:04.115Z,98280.56
2022-10-11T19:41:30.706Z,98292.34
2022-10-11T19:44:00.501Z,98283.78
2022-10-11T19:46:49.884Z,98286.91
2022-10-11T19:49:17.626Z,98287.47
2022-10-11T19:51:44.273Z,98289.31
2022-10-11T19:54:12.981Z,98295.69
2022-10-11T19:56:39.998Z,98294.97
2022-10-11T19:59:06.645Z,98295.69
2022-10-11T20:01:35.571Z,98297.16
2022-10-11T20:04:04.899Z,98298.63
2022-10-11T20:06:38.079Z,98301.13
2022-10-11T20:11:53.740Z,98300.03
2022-10-11T20:14:20.610Z,98293.97
2022-10-11T20:16:49.928Z,98298.00
2022-10-11T20:19:16.609Z,98297.09
2022-10-11T20:21:44.152Z,98294.91
2022-10-11T20:24:10.757Z,98301.69
2022-10-11T20:26:37.453Z,98300.97
2022-10-11T20:29:04.147Z,98295.47
2022-10-11T20:31:33.108Z,98295.25
2022-10-11T20:34:02.182Z,98295.06
2022-10-11T20:36:30.213Z,98297.09
2022-10-11T20:38:58.522Z,98298.38
2022-10-11T20:41:27.873Z,98300.97
2022-10-11T20:43:57.641Z,98303.88
2022-10-11T20:46:31.409Z,98294.19
2022-10-11T20:49:03.573Z,98291.28
2022-10-11T20:51:35.086Z,98293.13
2022-10-11T20:54:04.099Z,98290.94
2022-10-11T20:56:30.863Z,98293.53
2022-10-11T20:58:58.195Z,98298.84
2022-10-11T21:01:33.487Z,98293.34
2022-10-11T21:04:01.613Z,98297.00
2022-10-11T21:06:29.631Z,98296.81
2022-10-11T21:08:57.323Z,98301.91
2022-10-11T21:11:28.734Z,98305.94
2022-10-11T21:14:00.725Z,98304.09
2022-10-11T21:16:27.582Z,98297.88
2022-10-11T21:18:56.065Z,98300.63
2022-10-11T21:21:24.075Z,98295.16
2022-10-11T21:23:56.853Z,98292.94
2022-10-11T21:26:23.516Z,98303.38
2022-10-11T21:28:50.231Z,98294.25
2022-10-11T21:31:18.991Z,98299.00
2022-10-11T21:33:45.640Z,98302.16
2022-10-11T21:36:15.183Z,98295.59
2022-10-11T21:38:42.259Z,98304.25
2022-10-11T21:41:12.749Z,98299.13
2022-10-11T21:43:39.635Z,98294.78
2022-10-11T21:46:20.518Z,98299.34
2022-10-11T21:48:48.118Z,98288.03
2022-10-11T21:51:18.191Z,98292.81
2022-10-11T21:53:44.975Z,98291.34
2022-10-11T21:56:11.544Z,98290.47
2022-10-11T21:58:38.128Z,98288.44
2022-10-11T22:01:05.079Z,98290.66
2022-10-11T22:03:31.973Z,98290.34
2022-10-11T22:06:01.985Z,98285.41
2022-10-11T22:08:28.592Z,98284.69
2022-10-11T22:10:57.938Z,98281.78
2022-10-11T22:13:25.690Z,98285.97
2022-10-11T22:15:52.366Z,98284.75
2022-10-11T22:18:19.389Z,98284.91
2022-10-11T22:20:45.934Z,98279.81
2022-10-11T22:23:12.612Z,98277.44
2022-10-11T22:25:39.631Z,98269.94
2022-10-11T22:28:07.022Z,98278.16
2022-10-11T22:30:34.131Z,98271.81
2022-10-11T22:33:00.698Z,98262.69
2022-10-11T22:35:27.292Z,98259.94
2022-10-11T22:37:53.878Z,98255.16
2022-10-11T22:40:20.846Z,98265.09
2022-10-11T22:42:47.978Z,98265.81
2022-10-11T22:45:14.666Z,98260.13
2022-10-11T22:47:41.238Z,98251.38
2022-10-11T22:50:08.186Z,98255.38
2022-10-11T22:52:34.760Z,98251.38
2022-10-11T22:55:01.658Z,98260.53
2022-10-11T22:57:28.206Z,98262.00
2022-10-11T22:59:54.786Z,98259.97
2022-10-11T23:02:21.392Z,98260.13
2022-10-11T23:04:47.983Z,98261.63
2022-10-11T23:07:14.844Z,98264.34
2022-10-11T23:09:41.394Z,98267.81
2022-10-11T23:12:08.128Z,98265.63
2022-10-11T23:14:34.753Z,98265.63
2022-10-11T23:17:01.399Z,98262.53
2022-10-11T23:19:28.163Z,98250.69
2022-10-11T23:21:54.743Z,98255.03
2022-10-11T23:24:21.356Z,98260.72
2022-10-11T23:26:47.905Z,98260.53
2022-10-11T23:29:14.437Z,98261.25
2022-10-11T23:31:41.258Z,98261.25
2022-10-11T23:34:07.847Z,98257.63
2022-10-11T23:36:34.434Z,98263.66
2022-10-11T23:39:01.002Z,98262.78
2022-10-11T23:41:29.718Z,98267.53
2022-10-11T23:43:57.345Z,98261.88
2022-10-11T23:46:24.324Z,98266.44
2022-10-11T23:48:51.101Z,98276.34
2022-10-11T23:51:17.692Z,98274.19
2022-10-11T23:53:44.340Z,98282.59
2022-10-11T23:56:11.342Z,98278.22
2022-10-11T23:58:38.173Z,98270.56
